North Branch, MN (55056)

7:28 AM CDT on July 24, 2016 (GMT -0500)
Amador Township | | Change Station

Elev 880 ft 45.55 °N, 92.80 °W | Updated 50 seconds ago

Scattered Clouds
Scattered Clouds
68.6 °F
Feels Like 68.6 °F
N
1.2
Wind Variable Wind from South
Gusts 1.2 mph

Today
High -- | Low -- °F
--% Chance of Precip.
Yesterday
High -- | Low -- °F
Precip. -- in
Pressure 29.81 in
Visibility 10.0 miles
Clouds Scattered Clouds 6000 ft
Dew Point 69 °F
Humidity 100%
Rainfall 0.07 in
Snow Depth Not available.
5:47 AM 8:48 PM
Waning Gibbous, 76% visible
METAR KROS 241213Z AUTO 00000KT 10SM SCT060 21/20 A2981 RMK AO2 T02050196
Pressure 29.81 in
Visibility 10.0 miles
Clouds Scattered Clouds 6000 ft
Dew Point 69 °F
Humidity 100%
Rainfall 0.07 in
Snow Depth Not available.
5:47 AM 8:48 PM
Waning Gibbous, 76% visible
METAR KROS 241213Z AUTO 00000KT 10SM SCT060 21/20 A2981 RMK AO2 T02050196

10-Day Weather Forecast

Almanac

Astronomy

Jul. 24, 2016 Rise Set
Actual Time
Civil Twilight
Nautical Twilight
Astronomical Twilight
Moon
Length of Visible Light
Length of Day
Tomorrow will be .
, % of the Moon is Illuminated

Today's Extremes

State Highs State Lows

Community

WunderPhotos

Upload Photos

1,927,053 photos uploaded!

WunderBlog® & News

Nearby

Air Quality

  Air Quality AQ Index Pollutant
Not available.

Snow Depth

Station Depth Elevation

Earthquake Activity

City Distance Mag. Time & Date
Minimum magnitude displayed is 2.5.

Coastal Water Temperatures

Place Temperature

Stations

Nearby Weather Stations

Station Location Temp. Windchill Dew Point Humidity Wind Precip. Elev Updated Type
                   

Watches & Warnings

There are currently no watches in effect.